Time;durP1;ratioP1;P1;durP2;ratioP2;P2;SDS_P1;SDS_P2;PMS_P1;PMS_P2;Temp;Humidity;BMP_temperature;BMP_pressure;BME280_temperature;BME280_humidity;BME280_pressure;Samples;Min_cycle;Max_cycle;Signal;HPM_P1;HPM_P2
2023/07/04 04:02:22;;;;;;;4.80;2.20;;;18.00;99.90;;;;;;5121021;23;20076;-71
2023/07/04 04:04:47;;;;;;;3.00;2.20;;;18.00;99.90;;;;;;4989687;28;20031;-72
2023/07/04 04:07:13;;;;;;;4.80;2.10;;;18.00;99.90;;;;;;5015452;28;20025;-71
2023/07/04 04:09:39;;;;;;;5.20;2.35;;;17.90;99.90;;;;;;5016869;28;20024;-71
2023/07/04 04:12:06;;;;;;;5.88;2.33;;;18.00;99.90;;;;;;4984175;28;20049;-71
2023/07/04 04:14:32;;;;;;;4.88;2.22;;;18.00;99.90;;;;;;5018132;23;20037;-67
2023/07/04 04:16:58;;;;;;;;;;;18.10;99.90;;;;;;4979832;28;20030;-67
2023/07/04 04:19:25;;;;;;;5.22;2.30;;;18.00;99.90;;;;;;4996891;28;20366;-67
2023/07/04 04:21:52;;;;;;;4.40;2.50;;;18.10;99.90;;;;;;4996719;28;20034;-68
2023/07/04 04:24:18;;;;;;;4.60;2.40;;;18.00;99.90;;;;;;4997442;28;20023;-68
2023/07/04 04:26:46;;;;;;;6.30;2.75;;;18.00;99.90;;;;;;4996828;28;20453;-67
2023/07/04 04:29:13;;;;;;;5.68;2.80;;;18.00;99.90;;;;;;4996668;28;20029;-67
2023/07/04 04:31:39;;;;;;;5.20;2.42;;;18.00;99.90;;;;;;4982733;28;20515;-68
2023/07/04 04:34:06;;;;;;;4.90;2.72;;;18.00;99.90;;;;;;4959902;28;20431;-68
2023/07/04 04:36:33;;;;;;;5.97;2.80;;;18.00;99.90;;;;;;4959941;28;20031;-68
2023/07/04 04:38:59;;;;;;;4.43;2.67;;;18.00;99.90;;;;;;4966268;28;20058;-68
2023/07/04 04:41:26;;;;;;;5.57;2.85;;;17.90;99.90;;;;;;4971866;28;20035;-68
2023/07/04 04:43:53;;;;;;;4.32;2.63;;;18.00;99.90;;;;;;4969662;28;20018;-68
2023/07/04 04:46:18;;;;;;;5.22;2.78;;;18.00;99.90;;;;;;4973731;28;20427;-69
2023/07/04 04:48:44;;;;;;;5.60;3.13;;;18.10;99.90;;;;;;4960163;28;20031;-68
2023/07/04 04:51:12;;;;;;;4.72;2.40;;;18.20;99.90;;;;;;4957757;29;20265;-68
2023/07/04 04:53:40;;;;;;;5.45;2.30;;;18.30;99.90;;;;;;4968322;28;20058;-69
2023/07/04 04:56:06;;;;;;;8.48;2.50;;;18.20;99.90;;;;;;4977462;28;20114;-68
2023/07/04 04:58:32;;;;;;;4.53;2.88;;;18.40;99.90;;;;;;4970999;28;20042;-68
2023/07/04 05:01:10;;;;;;;4.60;2.42;;;18.40;99.90;;;;;;4952102;28;20034;-68
2023/07/04 05:03:36;;;;;;;5.63;2.83;;;18.50;99.90;;;;;;4973021;28;20031;-69
2023/07/04 05:06:03;;;;;;;6.80;2.65;;;18.60;99.90;;;;;;4951780;28;20053;-68
2023/07/04 05:08:28;;;;;;;5.03;2.97;;;18.70;99.90;;;;;;4976694;28;20035;-68
2023/07/04 05:11:04;;;;;;;6.28;2.95;;;18.80;99.90;;;;;;4959403;28;20030;-68
2023/07/04 05:13:30;;;;;;;4.10;2.88;;;18.90;99.90;;;;;;4957438;28;20025;-69
2023/07/04 05:16:07;;;;;;;6.85;3.53;;;18.90;99.90;;;;;;4976983;28;20023;-70
2023/07/04 05:18:34;;;;;;;;;;;18.90;99.90;;;;;;4951396;29;20065;-69
2023/07/04 05:21:00;;;;;;;9.02;3.80;;;18.90;99.90;;;;;;4973054;28;19906;-70
2023/07/04 05:23:26;;;;;;;6.75;2.78;;;18.90;99.90;;;;;;4959432;28;20471;-73
2023/07/04 05:26:07;;;;;;;8.23;3.13;;;18.80;99.90;;;;;;4959460;28;20027;-71
2023/07/04 05:28:33;;;;;;;7.35;2.80;;;18.90;99.90;;;;;;4976608;28;20050;-70
2023/07/04 05:31:03;;;;;;;4.93;2.53;;;18.90;99.90;;;;;;4976658;28;20457;-71
2023/07/04 05:33:29;;;;;;;6.57;3.10;;;18.80;99.90;;;;;;4959626;28;20026;-71
2023/07/04 05:36:09;;;;;;;5.43;3.58;;;18.80;99.90;;;;;;4959889;28;20033;-70
2023/07/04 05:38:36;;;;;;;6.70;3.10;;;18.70;99.90;;;;;;4960688;28;20043;-71
2023/07/04 05:41:02;;;;;;;6.00;3.20;;;18.90;99.90;;;;;;4959812;28;20022;-70
2023/07/04 05:43:28;;;;;;;5.38;3.17;;;18.90;99.90;;;;;;4959698;28;20368;-70
2023/07/04 05:45:54;;;;;;;4.53;3.00;;;18.80;99.90;;;;;;4978231;28;20027;-66
2023/07/04 05:48:20;;;;;;;;;;;18.80;99.90;;;;;;4995828;28;20403;-66
2023/07/04 05:50:54;;;;;;;5.93;3.70;;;19.00;99.90;;;;;;4995673;28;19953;-66
2023/07/04 05:53:24;;;;;;;7.90;2.83;;;19.00;99.90;;;;;;4994942;28;20040;-66
2023/07/04 05:55:51;;;;;;;4.68;3.03;;;19.00;99.90;;;;;;4995433;28;20093;-68
2023/07/04 05:58:18;;;;;;;4.70;2.70;;;19.10;99.90;;;;;;4978114;28;20110;-66
2023/07/04 06:00:44;;;;;;;5.97;2.72;;;19.20;99.90;;;;;;4977777;28;20026;-65
2023/07/04 06:03:09;;;;;;;5.47;2.80;;;19.20;99.90;;;;;;4977706;28;20033;-66
2023/07/04 06:05:39;;;;;;;6.53;3.28;;;19.30;99.90;;;;;;4995132;28;20173;-66
2023/07/04 06:08:05;;;;;;;5.18;2.72;;;19.20;99.90;;;;;;4995298;28;20145;-66
2023/07/04 06:10:30;;;;;;;6.35;2.90;;;19.20;99.90;;;;;;4995087;28;20104;-66
2023/07/04 06:12:56;;;;;;;6.53;2.80;;;19.30;99.90;;;;;;4995705;28;20105;-65
2023/07/04 06:15:22;;;;;;;6.43;2.58;;;19.30;99.90;;;;;;4994742;28;20509;-65
2023/07/04 06:17:47;;;;;;;4.60;2.55;;;19.30;99.90;;;;;;4986251;28;20572;-65
2023/07/04 06:20:13;;;;;;;6.88;2.53;;;19.40;99.90;;;;;;4973347;28;20062;-65
2023/07/04 06:22:38;;;;;;;7.70;2.50;;;19.50;99.90;;;;;;4975799;28;20056;-65
2023/07/04 06:25:06;;;;;;;8.43;2.47;;;19.60;99.90;;;;;;4975788;28;20064;-66
2023/07/04 06:27:32;;;;;;;5.72;2.60;;;19.60;99.90;;;;;;4975751;28;20027;-66
2023/07/04 06:29:57;;;;;;;8.23;2.70;;;19.70;99.90;;;;;;4975226;28;20604;-66
2023/07/04 06:32:23;;;;;;;9.85;2.78;;;19.80;99.90;;;;;;4975664;28;20114;-65
2023/07/04 06:34:48;;;;;;;8.13;2.80;;;19.90;99.90;;;;;;4975837;28;20023;-66
2023/07/04 06:37:14;;;;;;;8.95;3.28;;;19.90;99.90;;;;;;4975913;28;20041;-66
2023/07/04 06:39:39;;;;;;;7.28;2.78;;;19.90;99.90;;;;;;4967473;28;20046;-66
2023/07/04 06:42:06;;;;;;;8.07;2.63;;;19.90;99.90;;;;;;4975772;28;20046;-65
2023/07/04 06:44:31;;;;;;;;;;;19.90;99.90;;;;;;4975721;28;20034;-66
2023/07/04 06:46:56;;;;;;;10.45;2.88;;;20.00;99.90;;;;;;4976185;28;19906;-63
2023/07/04 06:49:23;;;;;;;7.78;2.90;;;20.10;99.90;;;;;;4975709;28;20034;-64
2023/07/04 06:51:48;;;;;;;11.13;2.92;;;20.30;99.90;;;;;;4976047;28;20514;-65
2023/07/04 06:54:14;;;;;;;5.60;2.80;;;20.40;99.90;;;;;;4977558;28;20043;-65
2023/07/04 06:56:40;;;;;;;10.02;3.45;;;20.60;99.90;;;;;;4976469;28;20034;-65
2023/07/04 06:59:06;;;;;;;14.30;3.38;;;20.90;99.90;;;;;;4975869;28;20081;-64
2023/07/04 07:01:32;;;;;;;11.27;3.60;;;21.00;99.90;;;;;;4975553;28;20074;-66
2023/07/04 07:03:59;;;;;;;10.95;3.08;;;21.10;99.90;;;;;;4975488;28;20027;-65
2023/07/04 07:06:26;;;;;;;11.07;3.13;;;21.20;99.90;;;;;;4974640;28;20035;-65
2023/07/04 07:08:52;;;;;;;9.27;3.30;;;21.40;99.90;;;;;;4975964;28;20022;-64
2023/07/04 07:11:19;;;;;;;12.25;3.30;;;21.50;99.90;;;;;;4975632;28;20114;-65
2023/07/04 07:13:46;;;;;;;7.43;3.15;;;21.60;99.90;;;;;;4974534;28;20086;-65
2023/07/04 07:16:22;;;;;;;12.68;4.45;;;21.60;99.90;;;;;;4976936;28;20027;-64
2023/07/04 07:18:49;;;;;;;11.30;3.23;;;21.60;99.90;;;;;;4978527;28;20023;-65
2023/07/04 07:21:18;;;;;;;9.82;3.13;;;21.60;99.90;;;;;;4982087;28;20282;-65
2023/07/04 07:23:44;;;;;;;10.98;3.78;;;21.50;99.90;;;;;;4985659;28;20040;-65
2023/07/04 07:26:12;;;;;;;11.35;3.83;;;21.60;99.90;;;;;;4965840;28;20094;-65
2023/07/04 07:28:39;;;;;;;7.18;3.10;;;21.60;99.90;;;;;;4965735;28;20080;-64
2023/07/04 07:31:11;;;;;;;9.00;3.08;;;21.60;99.90;;;;;;4974435;28;20034;-66
2023/07/04 07:33:45;;;;;;;6.60;3.30;;;21.60;99.90;;;;;;4974579;28;20466;-65
2023/07/04 07:36:25;;;;;;;9.95;3.65;;;21.70;99.90;;;;;;4974398;28;20436;-64
2023/07/04 07:38:53;;;;;;;10.57;3.50;;;21.80;99.90;;;;;;4956836;28;20022;-63
2023/07/04 07:41:21;;;;;;;10.45;3.75;;;21.80;99.90;;;;;;4974143;28;20031;-63
2023/07/04 07:43:46;;;;;;;15.73;4.38;;;22.00;99.90;;;;;;4973960;28;20038;-64
2023/07/04 07:46:15;;;;;;;10.38;3.83;;;22.40;99.90;;;;;;4974030;28;20027;-65
2023/07/04 07:48:40;;;;;;;9.80;3.80;;;22.90;99.70;;;;;;4974090;28;20027;-64
2023/07/04 07:51:08;;;;;;;12.93;4.05;;;23.40;98.80;;;;;;4974264;28;20027;-65
2023/07/04 07:53:35;;;;;;;9.90;4.32;;;23.80;97.70;;;;;;4956380;28;20515;-64
2023/07/04 07:56:02;;;;;;;10.43;3.67;;;24.30;97.00;;;;;;4974042;28;20035;-65
2023/07/04 07:58:28;;;;;;;12.07;3.88;;;24.60;96.70;;;;;;4974111;28;20113;-64
2023/07/04 08:00:53;;;;;;;;;;;24.90;95.70;;;;;;4956782;28;20055;-65
2023/07/04 08:03:18;;;;;;;9.95;3.92;;;25.20;94.90;;;;;;4973682;28;19945;-65
2023/07/04 08:05:45;;;;;;;;;;;25.60;94.10;;;;;;4975142;28;20384;-64
2023/07/04 08:08:12;;;;;;;7.57;3.00;;;25.70;93.30;;;;;;4974423;28;19910;-65
2023/07/04 08:10:40;;;;;;;7.57;3.67;;;25.80;93.00;;;;;;4974553;28;20042;-65
2023/07/04 08:13:06;;;;;;;10.63;3.45;;;26.10;92.70;;;;;;4974086;28;20026;-64
2023/07/04 08:15:32;;;;;;;8.40;3.83;;;26.60;92.00;;;;;;4956318;28;20070;-65
2023/07/04 08:18:07;;;;;;;9.27;3.40;;;27.20;90.50;;;;;;4977105;28;20035;-66
2023/07/04 08:20:32;;;;;;;7.03;3.38;;;28.50;88.90;;;;;;4977358;28;20463;-66
2023/07/04 08:22:59;;;;;;;8.85;3.78;;;29.60;86.10;;;;;;4977424;28;20097;-66
2023/07/04 08:25:24;;;;;;;12.30;3.83;;;29.90;83.30;;;;;;4959999;28;20031;-65
2023/07/04 08:27:51;;;;;;;18.70;3.67;;;30.00;82.10;;;;;;4977067;28;20547;-65
2023/07/04 08:30:16;;;;;;;11.10;3.90;;;29.50;81.90;;;;;;4976954;28;20019;-65
2023/07/04 08:32:42;;;;;;;9.70;4.07;;;29.40;81.20;;;;;;4977326;28;20035;-65
2023/07/04 08:35:07;;;;;;;10.73;3.92;;;29.30;81.00;;;;;;4976886;28;20387;-65
2023/07/04 08:37:33;;;;;;;11.55;3.75;;;29.80;80.50;;;;;;4977463;28;20034;-65
2023/07/04 08:39:58;;;;;;;9.70;3.38;;;31.00;77.80;;;;;;4977197;28;20035;-65
2023/07/04 08:42:28;;;;;;;9.05;3.88;;;31.90;75.60;;;;;;4976913;28;20030;-64
2023/07/04 08:44:54;;;;;;;10.35;3.78;;;32.60;73.50;;;;;;4976794;28;20019;-64
2023/07/04 08:47:25;;;;;;;9.80;3.75;;;33.70;71.40;;;;;;4976998;28;20029;-65
2023/07/04 08:50:16;;;;;;;7.65;3.88;;;34.90;68.60;;;;;;4977067;28;20030;-65
2023/07/04 08:52:52;;;;;;;11.50;3.65;;;36.00;65.60;;;;;;4977038;28;20042;-65
2023/07/04 08:55:19;;;;;;;14.68;5.82;;;36.70;64.00;;;;;;4955826;28;20126;-65
2023/07/04 08:57:53;;;;;;;12.45;4.20;;;37.50;62.20;;;;;;4957381;29;20035;-65
2023/07/04 09:00:36;;;;;;;9.32;4.13;;;38.00;59.20;;;;;;4957244;29;20078;-65
2023/07/04 09:03:20;;;;;;;11.32;4.13;;;37.50;58.70;;;;;;4957501;29;20038;-66
2023/07/04 09:06:33;;;;;;;9.70;4.22;;;38.20;57.30;;;;;;4957244;28;20027;-65
2023/07/04 09:09:39;;;;;;;10.25;3.92;;;38.20;57.10;;;;;;4898340;29;20033;-64
2023/07/04 09:12:06;;;;;;;10.32;4.22;;;37.70;56.70;;;;;;4882498;29;20105;-66
2023/07/04 09:14:54;;;;;;;6.47;4.13;;;36.50;57.10;;;;;;4897824;29;20434;-65
2023/07/04 09:17:44;;;;;;;10.35;4.20;;;35.80;57.90;;;;;;4897874;29;20479;-65
2023/07/04 09:20:10;;;;;;;8.77;4.53;;;34.70;58.90;;;;;;4898343;29;20129;-66
2023/07/04 09:22:36;;;;;;;14.18;4.57;;;34.40;59.60;;;;;;4898026;29;20078;-66
2023/07/04 09:25:04;;;;;;;10.82;4.10;;;35.20;59.30;;;;;;4897480;29;20029;-65
2023/07/04 09:27:30;;;;;;;11.88;4.05;;;35.80;58.30;;;;;;4896766;29;20040;-64
2023/07/04 09:29:57;;;;;;;15.00;4.63;;;35.80;58.10;;;;;;4897681;29;20036;-64
2023/07/04 09:32:23;;;;;;;10.13;4.10;;;35.90;58.10;;;;;;4897719;29;20136;-65
2023/07/04 09:34:53;;;;;;;10.00;4.22;;;35.60;58.00;;;;;;4897417;29;20071;-64
2023/07/04 09:37:20;;;;;;;8.55;3.97;;;36.00;57.50;;;;;;4897681;29;20029;-65
2023/07/04 09:39:54;;;;;;;9.70;4.50;;;36.60;57.00;;;;;;4931782;29;20079;-65
2023/07/04 09:42:22;;;;;;;10.45;4.20;;;36.50;57.00;;;;;;4939053;29;20034;-65
2023/07/04 09:44:51;;;;;;;10.25;4.45;;;36.90;56.70;;;;;;4956621;28;20378;-65
2023/07/04 09:47:25;;;;;;;8.10;4.47;;;37.80;55.60;;;;;;4938970;29;20034;-65
2023/07/04 09:50:12;;;;;;;11.18;4.80;;;38.40;54.50;;;;;;4956771;29;20028;-65
2023/07/04 09:52:38;;;;;;;7.60;4.40;;;36.60;54.80;;;;;;4938821;29;20035;-64
2023/07/04 09:55:16;;;;;;;9.32;4.93;;;35.50;56.10;;;;;;4956187;28;20042;-66
2023/07/04 09:57:44;;;;;;;9.85;4.72;;;34.10;57.80;;;;;;4956593;29;20118;-65
2023/07/04 10:00:21;;;;;;;9.95;4.65;;;33.60;57.80;;;;;;4938920;29;20027;-65
2023/07/04 10:02:52;;;;;;;6.63;4.13;;;33.20;58.40;;;;;;4955971;29;20054;-65
2023/07/04 10:05:35;;;;;;;10.13;4.53;;;33.80;57.80;;;;;;4956052;28;20030;-65
2023/07/04 10:08:03;;;;;;;8.35;4.30;;;33.60;57.90;;;;;;4956437;29;20034;-65
2023/07/04 10:10:32;;;;;;;7.28;4.18;;;33.20;58.20;;;;;;4956157;29;20046;-65
2023/07/04 10:12:58;;;;;;;8.90;3.97;;;33.90;57.60;;;;;;4938578;29;20392;-65
2023/07/04 10:15:26;;;;;;;10.07;4.35;;;34.60;55.80;;;;;;4956299;28;20035;-67
2023/07/04 10:17:52;;;;;;;8.10;4.03;;;35.00;55.60;;;;;;4956788;29;20054;-69
2023/07/04 10:20:18;;;;;;;8.65;4.43;;;35.00;55.80;;;;;;4956992;29;20023;-67
2023/07/04 10:22:52;;;;;;;10.07;4.07;;;34.50;55.10;;;;;;4939723;29;20063;-67
2023/07/04 10:25:24;;;;;;;8.30;4.35;;;35.00;53.70;;;;;;4956537;28;20019;-67
2023/07/04 10:28:06;;;;;;;7.97;3.88;;;36.00;52.40;;;;;;4956466;29;20508;-68
2023/07/04 10:30:35;;;;;;;8.35;4.68;;;36.80;51.90;;;;;;4955856;29;20027;-67
2023/07/04 10:33:05;;;;;;;10.60;4.10;;;37.50;51.00;;;;;;4955973;29;20054;-68
2023/07/04 10:35:33;;;;;;;7.95;4.30;;;38.00;50.50;;;;;;4955795;28;20199;-67
2023/07/04 10:38:07;;;;;;;6.80;3.78;;;38.90;50.10;;;;;;4955873;29;20027;-67
2023/07/04 10:40:37;;;;;;;9.15;4.03;;;38.50;50.30;;;;;;4956011;28;20034;-67
2023/07/04 10:43:19;;;;;;;9.57;4.55;;;37.60;50.80;;;;;;4939258;29;20023;-67
2023/07/04 10:45:47;;;;;;;7.50;4.00;;;37.00;50.70;;;;;;4993299;28;20133;-68
2023/07/04 10:48:15;;;;;;;7.57;4.40;;;35.90;50.80;;;;;;4995658;28;20109;-68
2023/07/04 10:51:10;;;;;;;9.38;3.90;;;34.80;52.30;;;;;;4994696;28;20136;-67
2023/07/04 10:53:36;;;;;;;8.63;4.70;;;34.90;52.90;;;;;;4993536;28;20038;-67
2023/07/04 10:56:19;;;;;;;13.13;4.68;;;35.60;52.80;;;;;;4996815;28;20476;-67
2023/07/04 10:58:47;;;;;;;9.93;4.55;;;36.40;52.30;;;;;;4996677;28;20197;-67
2023/07/04 11:01:21;;;;;;;9.60;3.95;;;36.40;51.40;;;;;;4995092;28;20026;-67
2023/07/04 11:03:53;;;;;;;6.38;4.05;;;35.40;52.40;;;;;;4995090;28;20535;-67
2023/07/04 11:06:29;;;;;;;10.63;4.78;;;34.20;53.20;;;;;;4994906;28;20022;-68
2023/07/04 11:08:56;;;;;;;9.10;4.40;;;34.10;53.90;;;;;;4996030;28;20026;-67
2023/07/04 11:11:29;;;;;;;7.13;3.90;;;33.50;53.60;;;;;;4995182;28;20026;-67
2023/07/04 11:14:00;;;;;;;15.27;4.43;;;34.10;53.60;;;;;;4994531;28;20034;-67
2023/07/04 11:16:29;;;;;;;10.45;4.47;;;33.80;54.10;;;;;;4994864;28;20033;-68
2023/07/04 11:19:14;;;;;;;9.75;4.60;;;33.40;54.40;;;;;;4995456;28;20105;-68
2023/07/04 11:22:15;;;;;;;7.22;4.32;;;32.80;54.90;;;;;;4994943;28;20034;-67
2023/07/04 11:24:54;;;;;;;10.60;4.45;;;31.00;55.70;;;;;;4953392;29;20082;-67
2023/07/04 11:27:24;;;;;;;8.10;4.05;;;30.30;57.00;;;;;;4953905;29;20039;-67
2023/07/04 11:30:03;;;;;;;9.80;4.78;;;29.60;58.00;;;;;;4953350;29;20027;-65
2023/07/04 11:32:37;;;;;;;10.02;4.60;;;29.40;58.50;;;;;;4953426;29;20035;-67
2023/07/04 11:35:13;;;;;;;10.15;4.03;;;29.20;58.40;;;;;;4953052;29;20106;-67
2023/07/04 11:37:45;;;;;;;9.05;4.40;;;28.70;58.80;;;;;;4953713;29;20110;-67
2023/07/04 11:40:25;;;;;;;8.30;4.00;;;28.20;59.60;;;;;;4954052;29;20595;-69
2023/07/04 11:42:54;;;;;;;7.18;4.20;;;27.80;60.60;;;;;;4953770;29;20041;-67
2023/07/04 11:45:22;;;;;;;7.20;4.63;;;27.80;61.40;;;;;;4952745;29;20512;-67
2023/07/04 11:47:52;;;;;;;11.32;4.68;;;28.00;61.00;;;;;;4954352;29;20104;-69
2023/07/04 11:50:27;;;;;;;8.10;4.25;;;28.10;60.20;;;;;;4953314;28;20393;-68
2023/07/04 11:53:01;;;;;;;7.03;4.18;;;28.00;60.40;;;;;;4956982;29;20065;-67
2023/07/04 11:55:32;;;;;;;15.05;4.90;;;28.20;60.80;;;;;;4957021;29;20027;-67
2023/07/04 11:58:07;;;;;;;7.82;4.28;;;28.00;61.10;;;;;;4965797;28;20375;-66
2023/07/04 12:00:35;;;;;;;10.25;4.57;;;28.10;61.30;;;;;;4997128;28;20022;-68
2023/07/04 12:03:16;;;;;;;8.65;3.92;;;28.10;61.10;;;;;;4978188;28;20033;-68
2023/07/04 12:05:49;;;;;;;9.00;4.57;;;28.00;61.00;;;;;;4978054;28;20482;-68
2023/07/04 12:08:49;;;;;;;6.90;3.90;;;28.10;61.30;;;;;;4978405;28;20105;-67
2023/07/04 12:11:21;;;;;;;9.23;4.50;;;28.20;61.10;;;;;;4979090;28;20023;-67
2023/07/04 12:13:49;;;;;;;8.65;4.50;;;27.60;61.90;;;;;;4981359;28;20041;-67
2023/07/04 12:16:20;;;;;;;10.52;4.57;;;27.80;61.70;;;;;;4997938;28;20018;-67
2023/07/04 12:18:46;;;;;;;12.57;4.28;;;28.10;60.80;;;;;;4998764;28;20030;-68
2023/07/04 12:21:17;;;;;;;11.65;4.70;;;28.20;61.00;;;;;;4998446;28;20022;-67
2023/07/04 12:23:45;;;;;;;6.80;4.15;;;28.10;60.90;;;;;;4997529;28;20109;-68
2023/07/04 12:26:18;;;;;;;9.40;3.83;;;27.80;61.40;;;;;;4998400;28;20037;-66
2023/07/04 12:28:46;;;;;;;6.95;4.18;;;27.80;61.20;;;;;;4998358;28;20022;-68
2023/07/04 12:31:14;;;;;;;7.43;4.03;;;27.90;60.90;;;;;;4980180;28;20026;-68
2023/07/04 12:33:44;;;;;;;8.88;4.32;;;27.60;61.50;;;;;;4997492;28;20484;-68
2023/07/04 12:36:15;;;;;;;7.85;4.22;;;27.40;62.60;;;;;;4979715;28;20026;-67
2023/07/04 12:38:46;;;;;;;7.60;4.50;;;27.50;62.40;;;;;;4979547;28;20391;-67
2023/07/04 12:41:31;;;;;;;8.13;4.40;;;27.80;62.60;;;;;;4978697;28;20117;-68
2023/07/04 12:44:03;;;;;;;10.52;4.30;;;28.00;62.00;;;;;;4962055;28;20030;-67
2023/07/04 12:46:35;;;;;;;7.28;4.22;;;27.80;60.60;;;;;;4977439;28;20054;-66
2023/07/04 12:49:02;;;;;;;7.43;4.35;;;27.70;61.40;;;;;;4976877;28;20077;-66
2023/07/04 12:51:30;;;;;;;9.40;4.45;;;28.00;61.50;;;;;;4976937;28;20042;-68
2023/07/04 12:54:02;;;;;;;7.70;4.40;;;28.20;61.60;;;;;;4976474;28;20027;-66
2023/07/04 12:56:29;;;;;;;11.93;4.28;;;28.40;61.10;;;;;;4976646;28;20476;-66
2023/07/04 12:58:55;;;;;;;8.40;3.75;;;28.50;60.60;;;;;;4973051;28;20157;-66
2023/07/04 13:01:30;;;;;;;7.43;4.43;;;28.40;60.30;;;;;;4965297;28;20031;-67
2023/07/04 13:04:05;;;;;;;11.20;4.40;;;28.40;60.40;;;;;;4955985;28;20034;-67
2023/07/04 13:06:31;;;;;;;9.00;4.10;;;28.40;60.20;;;;;;4955906;29;20110;-66
2023/07/04 13:08:59;;;;;;;10.40;4.85;;;28.50;60.70;;;;;;4957744;29;20102;-67
2023/07/04 13:11:26;;;;;;;8.80;4.38;;;28.60;61.30;;;;;;4956281;29;20031;-66
2023/07/04 13:14:05;;;;;;;7.50;4.25;;;28.70;60.70;;;;;;4962883;28;20030;-66
2023/07/04 13:16:33;;;;;;;7.53;3.83;;;28.80;60.50;;;;;;4995943;28;20026;-66
2023/07/04 13:19:18;;;;;;;6.13;3.78;;;28.80;60.90;;;;;;4996061;28;20023;-67
2023/07/04 13:21:50;;;;;;;9.57;3.80;;;28.70;60.80;;;;;;4997183;28;20394;-67
2023/07/04 13:24:28;;;;;;;8.45;4.38;;;28.10;60.70;;;;;;4997142;28;20128;-67
2023/07/04 13:26:54;;;;;;;8.40;3.95;;;27.80;62.30;;;;;;4996298;28;20046;-66
2023/07/04 13:29:26;;;;;;;6.13;3.55;;;28.00;62.20;;;;;;4996512;28;20061;-67
2023/07/04 13:31:54;;;;;;;10.77;4.85;;;28.00;62.10;;;;;;4996277;28;20022;-67
2023/07/04 13:34:23;;;;;;;9.48;4.22;;;27.80;61.80;;;;;;4997359;28;20045;-67
2023/07/04 13:36:54;;;;;;;6.28;3.60;;;27.90;62.10;;;;;;4979740;28;20487;-68
2023/07/04 13:39:21;;;;;;;8.25;3.90;;;27.90;62.00;;;;;;4982631;28;20498;-68
2023/07/04 13:41:52;;;;;;;9.45;4.57;;;27.90;62.00;;;;;;4977335;28;20031;-68
2023/07/04 13:44:19;;;;;;;10.75;4.43;;;27.80;62.70;;;;;;4983714;28;20407;-67
2023/07/04 13:46:45;;;;;;;9.10;4.28;;;27.90;62.70;;;;;;4978919;28;20061;-67
2023/07/04 13:49:11;;;;;;;9.18;3.95;;;28.00;62.90;;;;;;4979464;28;20332;-68
2023/07/04 13:51:37;;;;;;;9.45;4.10;;;28.20;62.30;;;;;;4996810;28;20027;-71
2023/07/04 13:54:04;;;;;;;8.20;3.83;;;28.10;62.40;;;;;;4995609;28;20034;-71
2023/07/04 13:56:31;;;;;;;8.93;4.28;;;28.00;62.40;;;;;;4995592;28;20072;-71
2023/07/04 13:58:57;;;;;;;10.00;4.00;;;27.80;63.30;;;;;;4996922;28;20112;-71
2023/07/04 14:01:24;;;;;;;7.95;3.90;;;27.70;63.40;;;;;;4996999;28;20086;-72
2023/07/04 14:03:50;;;;;;;6.78;3.90;;;27.60;62.50;;;;;;4998252;28;20030;-71
2023/07/04 14:06:16;;;;;;;8.48;3.95;;;27.60;64.30;;;;;;4997811;28;20372;-72
2023/07/04 14:08:45;;;;;;;10.23;4.30;;;27.80;64.00;;;;;;4997953;28;20387;-71
2023/07/04 14:11:19;;;;;;;9.93;4.53;;;27.80;63.80;;;;;;4980996;28;20050;-71
2023/07/04 14:13:46;;;;;;;6.55;4.00;;;27.80;64.00;;;;;;4979686;28;20073;-72
2023/07/04 14:16:20;;;;;;;6.82;4.00;;;28.00;63.70;;;;;;4979168;28;20518;-71
2023/07/04 14:18:46;;;;;;;16.80;5.20;;;28.10;63.20;;;;;;4967550;28;20045;-68
2023/07/04 14:21:15;;;;;;;12.43;4.88;;;28.10;64.20;;;;;;4954205;28;20027;-70
2023/07/04 14:23:41;;;;;;;8.57;4.50;;;28.10;63.60;;;;;;4967804;28;20014;-70
2023/07/04 14:26:19;;;;;;;7.35;4.03;;;28.00;63.30;;;;;;4967217;28;20022;-69
2023/07/04 14:28:45;;;;;;;9.45;4.28;;;28.00;63.40;;;;;;4952882;28;20046;-70
2023/07/04 14:31:11;;;;;;;11.95;4.75;;;28.10;63.30;;;;;;4967017;28;20042;-68
2023/07/04 14:33:37;;;;;;;10.10;4.47;;;28.20;63.40;;;;;;4957993;28;20035;-67
2023/07/04 14:36:06;;;;;;;10.95;4.30;;;28.20;63.40;;;;;;4967292;28;20535;-68
2023/07/04 14:38:36;;;;;;;8.75;4.13;;;28.10;63.70;;;;;;4969811;28;20050;-67
2023/07/04 14:41:04;;;;;;;7.75;4.28;;;28.00;63.30;;;;;;4952457;28;20122;-67
2023/07/04 14:43:30;;;;;;;9.90;4.20;;;28.00;63.60;;;;;;4970493;28;20027;-66
2023/07/04 14:46:01;;;;;;;8.02;4.35;;;28.00;63.90;;;;;;4955220;28;20045;-67
2023/07/04 14:48:27;;;;;;;7.38;4.20;;;28.00;63.70;;;;;;4966078;28;20026;-68
2023/07/04 14:51:03;;;;;;;7.47;4.25;;;28.00;64.10;;;;;;4975561;28;20023;-69
2023/07/04 14:53:29;;;;;;;8.40;4.18;;;28.00;64.10;;;;;;4977024;28;20055;-64
2023/07/04 14:56:02;;;;;;;8.15;4.03;;;27.90;63.70;;;;;;4958131;28;20058;-60
2023/07/04 14:58:28;;;;;;;8.02;4.80;;;27.80;63.90;;;;;;4958206;28;20563;-61
2023/07/04 15:00:54;;;;;;;7.05;4.05;;;27.80;64.80;;;;;;4974279;28;20170;-63
2023/07/04 15:03:20;;;;;;;8.55;3.90;;;27.70;64.60;;;;;;4975024;28;20031;-62
2023/07/04 15:05:45;;;;;;;9.32;4.57;;;27.70;64.60;;;;;;4974117;28;20027;-61
2023/07/04 15:08:11;;;;;;;9.80;5.00;;;27.80;64.60;;;;;;4974908;28;20513;-61
2023/07/04 15:10:37;;;;;;;12.43;4.50;;;27.80;64.50;;;;;;4975173;28;20027;-67
2023/07/04 15:13:02;;;;;;;9.82;4.60;;;28.00;64.10;;;;;;4975291;28;20050;-65
2023/07/04 15:15:28;;;;;;;10.55;4.18;;;28.30;64.40;;;;;;4974537;28;20035;-65
2023/07/04 15:17:53;;;;;;;9.40;5.15;;;28.40;63.90;;;;;;4975729;28;20325;-67
2023/07/04 15:20:19;;;;;;;11.68;4.10;;;28.50;63.70;;;;;;4974663;28;20047;-66
2023/07/04 15:22:45;;;;;;;8.68;4.47;;;28.50;64.10;;;;;;4974533;28;20039;-67
2023/07/04 15:25:11;;;;;;;8.73;3.83;;;28.40;64.00;;;;;;4957420;28;20019;-67
2023/07/04 15:27:37;;;;;;;9.00;4.10;;;28.30;63.90;;;;;;4978382;28;20019;-67
2023/07/04 15:30:03;;;;;;;7.97;4.18;;;28.20;64.30;;;;;;4978715;28;20023;-66
2023/07/04 15:32:29;;;;;;;8.75;3.92;;;28.10;64.30;;;;;;4978496;28;20117;-66
2023/07/04 15:34:55;;;;;;;7.72;4.00;;;27.90;64.00;;;;;;4978664;28;20133;-67
2023/07/04 15:37:23;;;;;;;12.85;3.78;;;27.90;64.40;;;;;;4978464;28;20047;-66
2023/07/04 15:39:50;;;;;;;6.55;3.70;;;27.90;64.50;;;;;;4978818;28;20019;-67
2023/07/04 15:42:16;;;;;;;6.03;3.80;;;27.90;64.50;;;;;;4978180;28;20027;-65
2023/07/04 15:44:42;;;;;;;6.63;4.00;;;27.90;63.80;;;;;;4990051;28;20491;-67
2023/07/04 15:47:07;;;;;;;9.52;4.43;;;27.80;63.90;;;;;;4998833;28;20019;-68
2023/07/04 15:49:33;;;;;;;7.15;3.95;;;27.80;64.50;;;;;;4999147;28;20045;-69
2023/07/04 15:51:59;;;;;;;10.38;7.72;;;27.60;64.40;;;;;;4999859;28;20081;-68
2023/07/04 15:54:26;;;;;;;8.02;3.65;;;27.60;64.90;;;;;;5000207;28;20181;-69
2023/07/04 15:56:52;;;;;;;5.35;3.60;;;27.50;64.80;;;;;;4984283;28;20418;-68
2023/07/04 15:59:19;;;;;;;8.65;3.80;;;27.40;64.90;;;;;;4955538;28;20042;-68
2023/07/04 16:01:45;;;;;;;10.93;4.50;;;27.40;65.00;;;;;;4967244;28;20050;-68
2023/07/04 16:04:12;;;;;;;8.15;4.28;;;27.50;65.20;;;;;;4968006;28;20106;-67
2023/07/04 16:06:37;;;;;;;6.68;3.70;;;27.50;65.50;;;;;;4979949;28;20026;-68
2023/07/04 16:09:04;;;;;;;9.32;3.92;;;27.40;65.10;;;;;;4997902;28;20026;-67
2023/07/04 16:11:30;;;;;;;7.15;3.80;;;27.40;65.60;;;;;;4978592;28;20515;-69
2023/07/04 16:13:55;;;;;;;8.27;3.90;;;27.40;65.60;;;;;;4978666;28;20054;-67
2023/07/04 16:16:22;;;;;;;11.70;5.57;;;27.40;66.00;;;;;;4978563;28;20372;-67
2023/07/04 16:18:47;;;;;;;9.27;4.60;;;27.40;66.00;;;;;;4976866;28;20023;-66
2023/07/04 16:21:13;;;;;;;7.85;4.00;;;27.30;66.30;;;;;;4959343;29;20027;-68
2023/07/04 16:23:40;;;;;;;6.65;4.15;;;27.30;66.40;;;;;;4958748;28;20031;-68
2023/07/04 16:26:06;;;;;;;11.43;4.32;;;27.30;66.60;;;;;;5017455;23;20139;-71
2023/07/04 16:28:32;;;;;;;6.72;4.10;;;27.20;66.70;;;;;;5052303;28;20031;-70
2023/07/04 16:31:03;;;;;;;10.02;4.07;;;27.20;66.80;;;;;;5038272;28;20029;-72
2023/07/04 16:33:31;;;;;;;6.00;3.47;;;27.00;66.90;;;;;;5056035;28;20017;-72
2023/07/04 16:35:57;;;;;;;7.20;3.78;;;26.90;67.50;;;;;;5034787;28;20025;-72
2023/07/04 16:38:23;;;;;;;7.82;4.55;;;26.80;68.00;;;;;;5019023;28;20053;-71
2023/07/04 16:40:51;;;;;;;6.63;3.88;;;26.80;68.10;;;;;;5034619;28;20138;-69
2023/07/04 16:43:16;;;;;;;12.70;4.30;;;26.50;71.40;;;;;;5035566;28;20048;-68
2023/07/04 16:45:42;;;;;;;;;;;26.10;73.90;;;;;;5036233;28;20419;-68
2023/07/04 16:48:07;;;;;;;6.72;4.15;;;25.60;76.80;;;;;;5035918;28;19905;-67
2023/07/04 16:50:33;;;;;;;;;;;25.10;81.70;;;;;;5036336;28;20540;-68
2023/07/04 16:52:59;;;;;;;9.82;3.67;;;24.70;85.50;;;;;;5035654;28;19905;-69
2023/07/04 16:55:24;;;;;;;;;;;24.30;87.70;;;;;;5035713;28;20477;-70
2023/07/04 16:57:51;;;;;;;7.32;3.47;;;23.90;90.00;;;;;;5017733;28;19905;-69